createdAt,value
2022-09-27T07:55:44.217Z,10.52
2022-09-27T07:58:22.484Z,10.44
2022-09-27T08:00:58.040Z,10.48
2022-09-27T08:18:53.261Z,11.12
2022-09-27T08:21:59.821Z,10.96
2022-09-27T08:31:03.612Z,10.85
2022-09-27T08:33:39.149Z,10.83
2022-09-27T08:36:12.310Z,10.89
2022-09-27T08:38:49.758Z,10.93
2022-09-27T08:44:33.075Z,11.09
2022-09-27T08:47:18.363Z,11.51
2022-09-27T08:49:53.822Z,11.39
2022-09-27T08:52:27.724Z,11.42
2022-09-27T08:55:00.059Z,11.23
2022-09-27T08:57:28.043Z,11.01
2022-09-27T09:00:02.735Z,10.82
2022-09-27T09:02:31.166Z,10.66
2022-09-27T09:05:04.057Z,10.61
2022-09-27T09:07:50.021Z,10.70
2022-09-27T09:10:50.661Z,10.75
2022-09-27T09:13:29.128Z,10.62
2022-09-27T09:16:11.718Z,10.70
2022-09-27T09:18:58.389Z,10.73
2022-09-27T09:21:48.661Z,10.97
2022-09-27T09:24:27.347Z,11.03
2022-09-27T09:27:04.573Z,11.11
2022-09-27T09:29:54.167Z,11.61
2022-09-27T09:32:34.645Z,11.91
2022-09-27T09:35:03.724Z,11.66
2022-09-27T09:37:39.003Z,11.67
2022-09-27T09:40:19.124Z,11.97
2022-09-27T09:42:55.763Z,11.78
2022-09-27T09:45:28.680Z,11.82
2022-09-27T09:48:04.455Z,11.76
2022-09-27T09:50:38.631Z,11.59
2022-09-27T09:53:16.132Z,11.43
2022-09-27T09:55:49.549Z,11.52
2022-09-27T09:58:24.999Z,11.15
2022-09-27T10:01:06.434Z,11.34
2022-09-27T10:03:34.328Z,11.59
2022-09-27T10:06:02.810Z,11.36
2022-09-27T10:08:30.730Z,11.46
2022-09-27T10:11:22.881Z,11.60
2022-09-27T10:13:59.891Z,11.80
2022-09-27T10:16:29.224Z,11.96
2022-09-27T10:19:03.913Z,12.23
2022-09-27T10:21:34.861Z,12.43
2022-09-27T10:24:13.698Z,12.20
2022-09-27T10:27:03.880Z,12.01
2022-09-27T10:29:39.554Z,12.00
2022-09-27T10:32:22.868Z,12.13
2022-09-27T10:34:52.285Z,12.21
2022-09-27T10:37:23.734Z,12.35
2022-09-27T10:40:25.946Z,12.33
2022-09-27T10:42:54.751Z,12.21
2022-09-27T10:45:31.673Z,12.04
2022-09-27T10:48:07.711Z,12.05
2022-09-27T10:50:59.553Z,12.16
2022-09-27T10:53:37.898Z,12.16
2022-09-27T10:56:23.121Z,12.21
2022-09-27T10:58:52.001Z,12.18
2022-09-27T11:01:23.234Z,12.32
2022-09-27T11:04:20.377Z,13.16
2022-09-27T11:06:49.761Z,13.48
2022-09-27T11:09:23.664Z,13.30
2022-09-27T11:12:07.342Z,13.18
2022-09-27T11:14:35.617Z,12.90
2022-09-27T11:17:17.737Z,13.27
2022-09-27T11:20:22.638Z,12.72
2022-09-27T11:23:19.346Z,12.76
2022-09-27T11:26:03.913Z,12.54
2022-09-27T11:28:43.266Z,12.19
2022-09-27T11:31:34.714Z,11.76
2022-09-27T11:34:33.461Z,11.95
2022-09-27T11:37:14.044Z,12.12
2022-09-27T11:39:56.211Z,12.09
2022-09-27T11:42:48.382Z,12.00
2022-09-27T11:45:50.532Z,12.03
2022-09-27T11:48:33.549Z,12.05
2022-09-27T11:51:16.677Z,12.62
2022-09-27T11:54:00.167Z,13.06
2022-09-27T11:56:41.321Z,13.17
2022-09-27T11:59:34.885Z,12.87
2022-09-27T12:02:13.510Z,12.78
2022-09-27T12:05:01.905Z,12.54
2022-09-27T12:07:42.622Z,12.60
2022-09-27T12:10:16.966Z,12.52
2022-09-27T12:12:52.035Z,12.93
2022-09-27T12:15:22.378Z,12.98
2022-09-27T12:17:53.502Z,13.09
2022-09-27T12:20:24.566Z,12.84
2022-09-27T12:23:00.639Z,12.93
2022-09-27T12:26:01.258Z,12.47
2022-09-27T12:28:40.836Z,12.44
2022-09-27T12:31:29.054Z,12.33
2022-09-27T12:34:13.356Z,12.13
2022-09-27T12:36:48.696Z,12.24
2022-09-27T12:39:23.545Z,11.92
2022-09-27T12:42:02.711Z,12.11
2022-09-27T12:44:44.784Z,11.93
2022-09-27T12:47:29.399Z,11.89
2022-09-27T12:50:04.784Z,11.79
2022-09-27T12:52:37.521Z,11.81
2022-09-27T12:55:37.401Z,11.57
2022-09-27T12:58:22.826Z,11.78
2022-09-27T13:00:59.258Z,11.74
2022-09-27T13:03:43.453Z,12.14
2022-09-27T13:06:39.014Z,11.89
2022-09-27T13:09:49.679Z,11.93
2022-09-27T13:12:23.492Z,12.33
2022-09-27T13:15:01.173Z,12.20
2022-09-27T13:17:54.464Z,12.24
2022-09-27T13:20:46.390Z,11.95
2022-09-27T13:23:57.919Z,11.84
2022-09-27T13:26:51.627Z,12.04
2022-09-27T13:29:34.053Z,11.86
2022-09-27T13:32:17.438Z,11.96
2022-09-27T13:35:20.399Z,11.95
2022-09-27T13:37:59.491Z,12.03
2022-09-27T13:40:40.875Z,12.38
2022-09-27T13:43:33.358Z,12.47
2022-09-27T13:46:09.678Z,12.54
2022-09-27T13:48:51.498Z,12.73
2022-09-27T13:51:32.553Z,12.59
2022-09-27T13:54:06.610Z,12.41
2022-09-27T13:56:56.385Z,12.44
2022-09-27T13:59:30.975Z,12.57
2022-09-27T14:02:26.601Z,12.52
2022-09-27T14:04:57.791Z,12.75
2022-09-27T14:07:32.907Z,12.39
2022-09-27T14:10:06.856Z,12.46
2022-09-27T14:12:42.350Z,12.52
2022-09-27T14:15:20.389Z,12.21
2022-09-27T14:17:49.880Z,12.41
2022-09-27T14:20:34.323Z,12.25
2022-09-27T14:23:05.121Z,12.18
2022-09-27T14:25:45.372Z,12.19
2022-09-27T14:28:26.746Z,12.28
2022-09-27T14:31:17.850Z,12.08
2022-09-27T14:34:09.282Z,12.02
2022-09-27T14:36:57.731Z,11.90
2022-09-27T14:39:32.551Z,11.82
2022-09-27T14:42:06.561Z,11.77
2022-09-27T14:44:36.145Z,11.75
2022-09-27T14:47:11.179Z,11.69
2022-09-27T14:49:49.442Z,11.46
2022-09-27T14:52:21.442Z,11.47
2022-09-27T15:04:04.588Z,11.44
2022-09-27T15:06:34.515Z,11.88
2022-09-27T15:09:02.576Z,11.60
2022-09-27T15:11:33.317Z,11.86
2022-09-27T15:14:05.603Z,11.64
2022-09-27T15:16:33.853Z,11.85
2022-09-27T15:19:03.998Z,11.56
2022-09-27T15:21:35.340Z,11.61
2022-09-27T15:24:03.626Z,11.71
2022-09-27T15:26:37.776Z,11.71
2022-09-27T15:29:06.097Z,11.76
2022-09-27T15:31:35.956Z,11.68
2022-09-27T15:34:06.090Z,11.80
2022-09-27T15:36:58.283Z,11.89
2022-09-27T15:39:32.828Z,11.94
2022-09-27T15:42:09.880Z,11.84
2022-09-27T15:44:47.671Z,11.59
2022-09-27T15:47:41.431Z,11.35
2022-09-27T15:50:35.138Z,11.22
2022-09-27T15:53:06.739Z,11.27
2022-09-27T15:55:40.551Z,11.07
2022-09-27T15:58:15.558Z,11.21
2022-09-27T16:00:52.799Z,11.17
2022-09-27T16:03:20.888Z,11.03
2022-09-27T16:05:48.699Z,10.72
2022-09-27T16:08:18.740Z,10.99
2022-09-27T16:10:51.391Z,11.01
2022-09-27T16:13:19.437Z,10.76
2022-09-27T16:15:49.282Z,10.90
2022-09-27T16:18:17.306Z,10.74
2022-09-27T16:20:45.301Z,10.77
2022-09-27T16:23:13.136Z,10.73
2022-09-27T16:25:42.254Z,10.55
2022-09-27T16:28:12.052Z,10.54
2022-09-27T16:30:39.883Z,10.71
2022-09-27T16:33:07.654Z,10.76
2022-09-27T16:35:35.437Z,10.72
2022-09-27T16:38:03.294Z,10.46
2022-09-27T16:40:32.037Z,10.43
2022-09-27T16:43:01.347Z,10.46
2022-09-27T16:45:34.126Z,10.20
2022-09-27T16:48:02.415Z,10.22
2022-09-27T16:50:47.834Z,10.41
2022-09-27T16:53:16.051Z,10.11
2022-09-27T16:55:43.829Z,10.11
2022-09-27T16:58:13.039Z,10.10
2022-09-27T17:00:42.087Z,10.21
2022-09-27T17:03:10.311Z,10.18
2022-09-27T17:05:38.088Z,10.06
2022-09-27T17:08:06.030Z,10.13
2022-09-27T17:10:35.724Z,10.06
2022-09-27T17:13:03.630Z,10.15
2022-09-27T17:15:32.955Z,10.12
2022-09-27T17:18:00.799Z,10.22
2022-09-27T17:20:28.595Z,10.24
2022-09-27T17:22:57.059Z,10.21
2022-09-27T17:25:24.921Z,10.13
2022-09-27T17:27:52.719Z,10.21
2022-09-27T17:30:20.949Z,10.12
2022-09-27T17:32:50.033Z,10.08
2022-09-27T17:35:18.060Z,10.07
2022-09-27T17:37:46.187Z,10.10
2022-09-27T17:40:14.498Z,10.20
2022-09-27T17:42:42.350Z,10.17
2022-09-27T17:45:10.936Z,10.09
2022-09-27T17:47:56.335Z,10.12
2022-09-27T17:50:25.485Z,9.96
2022-09-27T17:52:53.779Z,10.16
2022-09-27T17:55:22.461Z,9.93
2022-09-27T17:57:51.891Z,9.84
2022-09-27T18:00:20.631Z,9.99
2022-09-27T18:02:48.841Z,9.93
2022-09-27T18:05:18.369Z,9.92
2022-09-27T18:07:47.585Z,9.75
2022-09-27T18:10:16.720Z,9.75
2022-09-27T18:12:44.544Z,9.78
2022-09-27T18:15:12.623Z,9.50
2022-09-27T18:17:40.692Z,9.40
2022-09-27T18:20:09.327Z,9.41
2022-09-27T18:38:28.726Z,9.23
2022-09-27T19:59:35.465Z,9.07
2022-09-27T20:02:03.983Z,9.24
2022-09-27T20:11:06.187Z,9.13
2022-09-27T20:13:45.359Z,8.95
2022-09-27T20:16:32.392Z,9.08
2022-09-27T20:19:02.675Z,9.04
2022-09-27T20:24:42.981Z,8.97
2022-09-27T20:27:11.837Z,9.10
2022-09-27T20:29:41.232Z,9.03
2022-09-27T20:32:26.693Z,9.04
2022-09-27T20:38:11.663Z,9.04
2022-09-27T20:40:57.650Z,9.04
2022-09-27T20:46:21.264Z,9.01
2022-09-27T20:48:53.214Z,9.03
2022-09-27T20:51:32.866Z,9.03
2022-09-27T20:54:03.414Z,9.15
2022-09-27T20:56:33.732Z,9.17
2022-09-27T21:02:02.420Z,9.15
2022-09-27T21:04:31.622Z,9.06
2022-09-27T21:10:13.629Z,8.94
2022-09-27T21:15:44.676Z,8.82
2022-09-27T21:18:14.722Z,8.64
2022-09-27T21:20:45.059Z,8.72
2022-09-27T21:23:12.896Z,8.74
2022-09-27T21:25:43.021Z,8.75
2022-09-27T21:28:10.856Z,8.71
2022-09-27T21:30:38.729Z,8.61
2022-09-27T21:33:06.560Z,8.77
2022-09-27T21:38:36.885Z,8.67
2022-09-27T21:44:06.192Z,8.55
2022-09-27T21:46:34.449Z,8.52
2022-09-27T21:49:05.313Z,8.54
2022-09-27T21:51:36.469Z,8.61
2022-09-27T21:54:06.753Z,8.58
2022-09-27T21:56:37.466Z,8.70
2022-09-27T22:02:09.453Z,8.53
2022-09-27T22:10:44.461Z,8.28
2022-09-27T22:13:12.870Z,8.44
2022-09-27T22:15:46.814Z,8.42
2022-09-27T22:18:16.310Z,8.34
2022-09-27T22:20:44.317Z,8.37
2022-09-27T22:23:12.220Z,8.50
2022-09-27T22:25:40.217Z,8.49
2022-09-27T22:28:08.583Z,8.43
2022-09-27T22:30:50.479Z,8.58
2022-09-27T22:33:19.978Z,8.56
2022-09-27T22:35:48.191Z,8.38
2022-09-27T22:38:48.697Z,8.55
2022-09-27T22:41:17.156Z,8.23
2022-09-27T22:43:58.375Z,8.41
2022-09-27T22:46:26.669Z,8.49
2022-09-27T22:48:56.464Z,8.20
2022-09-27T22:51:24.266Z,8.36
2022-09-27T22:53:52.100Z,8.31
2022-09-27T22:59:32.844Z,8.15
2022-09-27T23:02:00.679Z,8.35
2022-09-27T23:04:29.861Z,8.35
2022-09-27T23:06:58.167Z,8.50
2022-09-27T23:09:26.834Z,8.58
2022-09-27T23:11:55.680Z,8.50
2022-09-27T23:14:23.679Z,8.37
2022-09-27T23:16:51.847Z,8.24
2022-09-27T23:22:22.666Z,8.53
2022-09-27T23:30:40.532Z,8.36
2022-09-27T23:33:08.957Z,8.52
2022-09-27T23:35:39.205Z,8.32
2022-09-27T23:38:08.406Z,8.41
2022-09-27T23:40:36.850Z,8.68
2022-09-27T23:43:04.745Z,8.60
2022-09-27T23:45:33.416Z,8.58
2022-09-27T23:48:02.675Z,8.56
2022-09-27T23:50:32.365Z,8.62
2022-09-27T23:53:00.643Z,8.37
2022-09-27T23:55:29.886Z,8.45
2022-09-27T23:57:57.743Z,8.67
